createdAt,value
2023-05-24T00:01:12.905Z,24.70
2023-05-24T00:03:40.744Z,24.50
2023-05-24T00:06:08.743Z,25.20
2023-05-24T00:08:36.432Z,23.00
2023-05-24T00:11:04.257Z,24.90
2023-05-24T00:13:31.959Z,25.00
2023-05-24T00:15:59.594Z,25.70
2023-05-24T00:18:27.316Z,27.40
2023-05-24T00:20:57.431Z,28.40
2023-05-24T00:23:25.757Z,28.90
2023-05-24T00:25:53.667Z,28.30
2023-05-24T00:28:21.789Z,29.50
2023-05-24T00:30:51.460Z,29.10
2023-05-24T00:33:19.129Z,28.80
2023-05-24T00:35:46.806Z,28.40
2023-05-24T00:38:15.374Z,25.20
2023-05-24T00:40:43.284Z,24.10
2023-05-24T00:43:11.216Z,22.90
2023-05-24T00:45:38.828Z,24.10
2023-05-24T00:48:06.675Z,23.80
2023-05-24T00:50:35.463Z,23.50
2023-05-24T00:53:03.211Z,24.30
2023-05-24T00:55:31.232Z,23.10
2023-05-24T00:57:59.108Z,23.00
2023-05-24T01:00:27.636Z,23.90
2023-05-24T01:02:55.490Z,24.60
2023-05-24T01:05:23.939Z,22.20
2023-05-24T01:08:04.872Z,23.00
2023-05-24T01:10:45.515Z,23.10
2023-05-24T01:13:39.288Z,21.60
2023-05-24T01:18:48.038Z,19.40
2023-05-24T01:21:31.149Z,19.50
2023-05-24T01:24:14.640Z,20.20
2023-05-24T01:29:37.615Z,17.40
2023-05-24T01:32:05.853Z,19.30
2023-05-24T01:34:33.545Z,20.60
2023-05-24T01:37:01.229Z,20.60
2023-05-24T01:39:29.762Z,19.30
2023-05-24T01:42:17.791Z,19.00
2023-05-24T01:45:03.439Z,19.80
2023-05-24T01:47:53.219Z,20.30
2023-05-24T01:50:25.928Z,18.90
2023-05-24T01:52:53.948Z,19.00
2023-05-24T01:55:21.931Z,18.60
2023-05-24T01:57:49.732Z,16.80
2023-05-24T02:00:18.858Z,16.80
2023-05-24T02:02:46.742Z,15.80
2023-05-24T02:05:14.758Z,15.70
2023-05-24T02:07:42.930Z,16.10
2023-05-24T02:10:11.177Z,15.30
2023-05-24T02:12:38.888Z,16.10
2023-05-24T02:15:08.394Z,15.50
2023-05-24T02:17:37.310Z,16.40
2023-05-24T02:20:05.757Z,16.90
2023-05-24T02:22:33.501Z,16.70
2023-05-24T02:25:01.211Z,16.10
2023-05-24T02:27:28.970Z,15.80
2023-05-24T02:29:57.778Z,14.70
2023-05-24T02:32:25.629Z,17.90
2023-05-24T02:34:53.529Z,17.00
2023-05-24T02:37:21.346Z,16.80
2023-05-24T02:39:49.023Z,18.10
2023-05-24T02:42:16.723Z,17.50
2023-05-24T02:44:48.161Z,17.80
2023-05-24T02:47:16.156Z,18.00
2023-05-24T02:49:43.927Z,17.80
2023-05-24T02:52:11.754Z,19.10
2023-05-24T02:54:39.986Z,19.20
2023-05-24T02:57:07.800Z,23.50
2023-05-24T02:59:36.570Z,22.20
2023-05-24T03:02:04.746Z,19.30
2023-05-24T03:04:32.627Z,16.40
2023-05-24T03:07:00.896Z,14.80
2023-05-24T03:09:28.682Z,17.10
2023-05-24T03:11:56.407Z,18.60
2023-05-24T03:14:25.225Z,17.90
2023-05-24T03:16:53.012Z,17.90
2023-05-24T03:19:20.824Z,19.50
2023-05-24T03:21:48.967Z,17.60
2023-05-24T03:24:17.115Z,17.10
2023-05-24T03:26:45.367Z,15.90
2023-05-24T03:29:13.475Z,17.00
2023-05-24T03:31:42.446Z,14.30
2023-05-24T03:34:10.484Z,13.80
2023-05-24T03:36:39.334Z,14.10
2023-05-24T03:39:08.078Z,14.50
2023-05-24T03:41:48.668Z,14.90
2023-05-24T03:44:16.860Z,16.20
2023-05-24T03:46:44.752Z,15.40
2023-05-24T03:49:12.489Z,15.90
2023-05-24T03:51:42.470Z,16.50
2023-05-24T03:54:10.346Z,17.30
2023-05-24T03:56:38.721Z,13.20
2023-05-24T03:59:06.625Z,13.20
2023-05-24T04:01:36.819Z,14.30
2023-05-24T04:04:04.688Z,13.40
2023-05-24T04:06:32.507Z,11.40
2023-05-24T04:09:01.198Z,11.70
2023-05-24T04:11:30.326Z,12.20
2023-05-24T04:14:00.894Z,14.70
2023-05-24T04:16:29.417Z,15.40
2023-05-24T04:18:58.254Z,15.40
2023-05-24T04:21:26.409Z,16.10
2023-05-24T04:23:56.403Z,15.90
2023-05-24T04:26:24.146Z,16.60
2023-05-24T04:28:51.886Z,13.80
2023-05-24T04:31:20.580Z,12.20
2023-05-24T04:33:48.808Z,11.40
2023-05-24T04:36:17.974Z,12.00
2023-05-24T04:38:46.558Z,10.20
2023-05-24T04:41:14.506Z,12.20
2023-05-24T04:43:42.233Z,11.60
2023-05-24T04:46:10.328Z,10.70
2023-05-24T04:48:38.179Z,12.80
2023-05-24T04:51:05.958Z,13.00
2023-05-24T04:53:33.932Z,12.00
2023-05-24T04:56:01.794Z,10.00
2023-05-24T04:58:29.775Z,10.50
2023-05-24T05:00:57.642Z,9.40
2023-05-24T05:03:25.766Z,9.20
2023-05-24T05:05:53.684Z,7.80
2023-05-24T05:08:22.061Z,9.10
2023-05-24T05:10:50.034Z,10.30
2023-05-24T05:13:17.791Z,10.00
2023-05-24T05:15:45.738Z,11.80
2023-05-24T05:18:13.606Z,12.40
2023-05-24T05:20:41.800Z,10.40
2023-05-24T05:23:10.104Z,10.10
2023-05-24T05:25:37.947Z,14.10
2023-05-24T05:28:05.847Z,14.10
2023-05-24T05:30:33.662Z,9.80
2023-05-24T05:33:01.780Z,9.60
2023-05-24T05:35:29.689Z,11.80
2023-05-24T05:37:57.530Z,8.40
2023-05-24T05:40:25.399Z,9.10
2023-05-24T05:42:53.185Z,8.20
2023-05-24T05:45:21.326Z,7.60
2023-05-24T05:47:49.349Z,11.70
2023-05-24T05:50:17.421Z,9.40
2023-05-24T05:52:45.286Z,8.80
2023-05-24T05:55:13.102Z,9.40
2023-05-24T05:57:41.220Z,10.80
2023-05-24T06:00:10.023Z,9.80
2023-05-24T06:02:40.628Z,11.20
2023-05-24T06:05:09.163Z,9.80
2023-05-24T06:07:38.491Z,9.30
2023-05-24T06:10:07.429Z,8.90
2023-05-24T06:12:35.257Z,14.10
2023-05-24T06:15:03.098Z,7.80
2023-05-24T06:17:31.215Z,7.00
2023-05-24T06:20:00.622Z,7.70
2023-05-24T06:22:30.081Z,7.30
2023-05-24T06:24:58.043Z,22.60
2023-05-24T06:27:26.049Z,6.60
2023-05-24T06:29:53.873Z,6.70
2023-05-24T06:32:22.108Z,6.40
2023-05-24T06:34:50.171Z,6.80
2023-05-24T06:37:18.102Z,21.50
2023-05-24T06:39:46.481Z,5.90
2023-05-24T06:42:14.434Z,9.70
2023-05-24T06:44:46.986Z,8.00
2023-05-24T06:47:15.426Z,7.60
2023-05-24T06:49:43.615Z,5.30
2023-05-24T06:52:11.754Z,6.80
2023-05-24T06:54:40.280Z,14.20
2023-05-24T06:57:09.144Z,6.70
2023-05-24T06:59:37.520Z,7.20
2023-05-24T07:02:05.493Z,5.80
2023-05-24T07:04:33.293Z,6.40
2023-05-24T07:07:01.423Z,4.70
2023-05-24T07:09:29.296Z,5.80
2023-05-24T07:11:57.139Z,5.60
2023-05-24T07:14:27.567Z,4.70
2023-05-24T07:17:00.121Z,4.70
2023-05-24T07:19:29.947Z,4.80
2023-05-24T07:21:58.233Z,5.00
2023-05-24T07:24:26.158Z,5.30
2023-05-24T07:26:54.052Z,5.00
2023-05-24T07:29:22.126Z,5.60
2023-05-24T07:31:49.903Z,5.70
2023-05-24T07:34:20.844Z,5.00
2023-05-24T07:36:49.808Z,4.80
2023-05-24T07:39:17.651Z,4.50
2023-05-24T07:41:46.824Z,5.50
2023-05-24T07:44:15.222Z,4.00
2023-05-24T07:46:43.096Z,4.60
2023-05-24T07:49:11.312Z,4.40
2023-05-24T07:51:39.389Z,3.80
2023-05-24T07:54:07.435Z,5.50
2023-05-24T07:56:35.164Z,4.20
2023-05-24T07:59:07.085Z,5.10
2023-05-24T08:01:35.563Z,5.80
2023-05-24T08:04:06.472Z,5.80
2023-05-24T08:06:35.338Z,5.10
2023-05-24T08:09:04.672Z,6.00
2023-05-24T08:11:32.549Z,6.20
2023-05-24T08:14:00.417Z,6.50
2023-05-24T08:16:28.355Z,6.40
2023-05-24T08:18:56.293Z,6.30
2023-05-24T08:21:24.058Z,6.70
2023-05-24T08:23:51.914Z,6.30
2023-05-24T08:26:21.187Z,5.80
2023-05-24T08:28:49.120Z,6.00
2023-05-24T08:31:17.371Z,4.50
2023-05-24T08:33:45.855Z,3.60
2023-05-24T08:36:13.705Z,4.60
2023-05-24T08:38:41.666Z,4.20
2023-05-24T08:41:11.529Z,3.80
2023-05-24T08:43:39.518Z,4.70
2023-05-24T08:46:07.732Z,3.90
2023-05-24T08:48:47.370Z,4.00
2023-05-24T08:51:16.344Z,3.70
2023-05-24T08:53:48.875Z,3.50
2023-05-24T08:56:17.939Z,3.30
2023-05-24T08:58:47.490Z,3.80
2023-05-24T09:01:15.670Z,3.80
2023-05-24T09:03:44.032Z,3.70
2023-05-24T09:06:12.413Z,5.10
2023-05-24T09:08:43.621Z,3.50
2023-05-24T09:11:11.946Z,4.50
2023-05-24T09:13:39.760Z,4.30
2023-05-24T09:16:07.776Z,4.90
2023-05-24T09:18:35.425Z,3.80
2023-05-24T09:21:03.149Z,4.70
2023-05-24T09:23:30.854Z,4.10
2023-05-24T09:25:58.681Z,3.80
2023-05-24T09:28:26.272Z,3.60
2023-05-24T09:31:07.513Z,3.30
2023-05-24T09:33:35.869Z,3.30
2023-05-24T09:36:04.981Z,3.90
2023-05-24T09:38:33.462Z,4.10
2023-05-24T09:41:11.164Z,3.00
2023-05-24T09:43:48.539Z,3.50
2023-05-24T09:46:22.595Z,3.70
2023-05-24T09:49:04.099Z,5.00
2023-05-24T09:51:32.689Z,3.90
2023-05-24T09:54:03.787Z,5.10
2023-05-24T09:56:33.386Z,4.60
2023-05-24T09:59:09.024Z,4.20
2023-05-24T10:01:37.036Z,4.30
2023-05-24T10:04:09.932Z,4.30
2023-05-24T10:06:38.780Z,4.70
2023-05-24T10:09:07.351Z,4.40
2023-05-24T10:11:37.288Z,4.70
2023-05-24T10:14:07.474Z,4.50
2023-05-24T10:16:38.276Z,3.90
2023-05-24T10:19:07.548Z,4.60
2023-05-24T10:21:37.908Z,4.60
2023-05-24T10:24:08.848Z,4.00
2023-05-24T10:26:37.274Z,5.00
2023-05-24T10:29:07.929Z,4.90
2023-05-24T10:31:38.480Z,4.10
2023-05-24T10:34:08.710Z,5.60
2023-05-24T10:36:40.263Z,5.50
2023-05-24T10:39:12.781Z,5.90
2023-05-24T10:41:43.586Z,5.10
2023-05-24T10:44:13.578Z,5.90
2023-05-24T10:47:11.133Z,4.40
2023-05-24T10:49:49.171Z,4.40
2023-05-24T10:52:16.994Z,5.20
2023-05-24T10:55:14.600Z,4.00
2023-05-24T10:57:42.539Z,4.40
2023-05-24T11:03:04.441Z,4.30
2023-05-24T11:05:36.713Z,4.30
2023-05-24T11:08:06.126Z,4.40
2023-05-24T11:10:35.073Z,4.20
2023-05-24T11:13:04.330Z,4.70
2023-05-24T11:15:32.168Z,4.80
2023-05-24T11:18:10.129Z,4.20
2023-05-24T11:20:38.412Z,4.90
2023-05-24T11:23:09.739Z,5.20
2023-05-24T11:25:38.471Z,6.30
2023-05-24T11:28:11.177Z,5.60
2023-05-24T11:30:43.887Z,6.90
2023-05-24T11:35:47.344Z,7.20
2023-05-24T11:38:15.877Z,7.40
2023-05-24T11:40:44.948Z,6.00
2023-05-24T11:43:22.297Z,7.50
2023-05-24T11:45:50.388Z,5.90
2023-05-24T11:48:19.221Z,6.80
2023-05-24T11:50:50.422Z,6.00
2023-05-24T11:53:19.576Z,4.40
2023-05-24T11:55:48.990Z,6.00
2023-05-24T11:58:17.347Z,4.80
2023-05-24T12:00:45.209Z,5.00
2023-05-24T12:03:13.478Z,4.70
2023-05-24T12:05:41.495Z,4.40
2023-05-24T12:08:12.513Z,4.70
2023-05-24T12:10:42.359Z,3.50
2023-05-24T12:13:24.609Z,4.10
2023-05-24T12:15:56.310Z,3.60
2023-05-24T12:18:26.606Z,3.90
2023-05-24T12:20:54.835Z,4.70
2023-05-24T12:23:29.791Z,5.40
2023-05-24T12:26:01.572Z,4.60
2023-05-24T12:28:36.498Z,4.60
2023-05-24T12:31:05.057Z,4.20
2023-05-24T12:33:33.475Z,4.50
2023-05-24T12:36:01.407Z,4.50
2023-05-24T12:38:29.304Z,4.20
2023-05-24T12:41:08.191Z,4.20
2023-05-24T12:43:41.182Z,4.60
2023-05-24T12:46:08.978Z,5.80
2023-05-24T12:48:37.250Z,4.80
2023-05-24T12:51:05.029Z,4.80
2023-05-24T12:53:32.963Z,5.00
2023-05-24T12:56:00.934Z,5.30
2023-05-24T12:58:29.278Z,4.70
2023-05-24T13:00:57.189Z,4.40
2023-05-24T13:03:25.057Z,5.30
2023-05-24T13:05:53.193Z,4.70
2023-05-24T13:08:21.430Z,4.40
2023-05-24T13:10:51.097Z,4.50
2023-05-24T13:13:18.963Z,3.60
2023-05-24T13:15:47.736Z,4.40
2023-05-24T13:18:16.423Z,4.80
2023-05-24T13:20:44.497Z,4.50
2023-05-24T13:23:13.302Z,3.50
2023-05-24T13:25:41.103Z,3.80
2023-05-24T13:28:08.965Z,3.50
2023-05-24T13:30:37.153Z,5.00
2023-05-24T13:33:05.195Z,4.60
2023-05-24T13:35:33.156Z,4.00
2023-05-24T13:38:01.042Z,3.50
2023-05-24T13:40:29.056Z,4.00
2023-05-24T13:42:57.451Z,4.40
2023-05-24T13:45:25.652Z,3.80
2023-05-24T13:47:54.154Z,4.00
2023-05-24T13:50:24.033Z,3.70
2023-05-24T13:52:51.943Z,4.20
2023-05-24T13:55:20.396Z,3.90
2023-05-24T13:57:51.596Z,3.80
2023-05-24T14:00:20.697Z,3.80
2023-05-24T14:02:49.006Z,4.60
2023-05-24T14:07:47.723Z,3.30
2023-05-24T14:10:16.599Z,4.10
2023-05-24T14:12:47.921Z,4.20
2023-05-24T14:15:19.297Z,4.30
2023-05-24T14:17:47.090Z,4.30
2023-05-24T14:20:15.042Z,4.60
2023-05-24T14:22:42.907Z,6.40
2023-05-24T14:25:10.769Z,5.10
2023-05-24T14:27:38.862Z,5.70
2023-05-24T14:30:08.511Z,4.10
2023-05-24T14:32:36.319Z,5.00
2023-05-24T14:35:05.054Z,4.40
2023-05-24T14:37:32.797Z,4.30
2023-05-24T14:40:01.069Z,3.80
2023-05-24T14:42:28.965Z,4.00
2023-05-24T14:44:56.874Z,3.40
2023-05-24T14:47:24.978Z,3.70
2023-05-24T14:49:53.534Z,3.90
2023-05-24T14:52:21.657Z,4.60
2023-05-24T14:54:49.420Z,4.80
2023-05-24T14:57:17.407Z,4.20
2023-05-24T14:59:45.315Z,4.50
2023-05-24T15:02:13.192Z,4.00
2023-05-24T15:04:41.377Z,4.70
2023-05-24T15:07:10.536Z,3.90
2023-05-24T15:09:38.568Z,4.30
2023-05-24T15:12:07.884Z,4.40
2023-05-24T15:14:35.843Z,3.40
2023-05-24T15:17:03.759Z,4.00
2023-05-24T15:19:31.719Z,3.40
2023-05-24T15:22:00.115Z,3.60
2023-05-24T15:24:27.986Z,3.80
2023-05-24T15:26:55.870Z,4.40
2023-05-24T15:29:23.947Z,4.30
2023-05-24T15:31:51.766Z,3.80
2023-05-24T15:34:20.952Z,4.10
2023-05-24T15:36:50.819Z,5.30
2023-05-24T15:39:19.416Z,6.40
2023-05-24T15:41:47.306Z,5.40
2023-05-24T15:44:15.068Z,4.20
2023-05-24T15:46:43.793Z,4.50
2023-05-24T15:49:11.655Z,4.70
2023-05-24T15:54:10.558Z,5.00
2023-05-24T15:56:38.450Z,5.40
2023-05-24T15:59:06.456Z,5.10
2023-05-24T16:01:34.317Z,5.90
2023-05-24T16:04:02.395Z,5.30
2023-05-24T16:06:30.230Z,6.60
2023-05-24T16:08:58.364Z,6.40
2023-05-24T16:11:26.259Z,6.80
2023-05-24T16:13:54.945Z,6.70
2023-05-24T16:16:23.936Z,6.20
2023-05-24T16:18:51.794Z,6.00
2023-05-24T16:21:19.775Z,6.30
2023-05-24T16:23:47.802Z,7.80
2023-05-24T16:26:15.816Z,6.10
2023-05-24T16:28:44.408Z,5.90
2023-05-24T16:31:12.360Z,5.50
2023-05-24T16:33:40.229Z,6.70
2023-05-24T16:36:08.280Z,9.30
2023-05-24T16:38:38.246Z,10.90
2023-05-24T16:41:06.543Z,8.30
2023-05-24T16:43:34.715Z,8.30
2023-05-24T16:46:02.609Z,7.30
2023-05-24T16:48:31.887Z,6.90
2023-05-24T16:51:00.069Z,7.80
2023-05-24T16:53:28.118Z,6.90
2023-05-24T16:55:56.501Z,5.60
2023-05-24T16:58:25.829Z,5.70
2023-05-24T17:00:54.731Z,6.60
2023-05-24T17:03:28.419Z,6.10
2023-05-24T17:06:01.978Z,6.00
2023-05-24T17:08:35.819Z,7.00
2023-05-24T17:11:04.226Z,6.40
2023-05-24T17:13:32.386Z,5.30
2023-05-24T17:16:00.813Z,5.60
2023-05-24T17:18:29.493Z,6.40
2023-05-24T17:20:59.061Z,6.30
2023-05-24T17:23:27.840Z,5.30
2023-05-24T17:25:56.009Z,5.80
2023-05-24T17:28:27.895Z,5.60
2023-05-24T17:30:57.159Z,5.30
2023-05-24T17:33:26.096Z,5.40
2023-05-24T17:35:56.825Z,6.60
2023-05-24T17:38:25.320Z,5.40
2023-05-24T17:40:59.916Z,6.40
2023-05-24T17:43:33.059Z,6.00
2023-05-24T17:46:06.771Z,6.70
2023-05-24T17:48:38.983Z,6.40
2023-05-24T17:51:08.051Z,7.30
2023-05-24T17:53:37.034Z,6.30
2023-05-24T17:56:05.492Z,7.60
2023-05-24T17:58:36.839Z,6.60
2023-05-24T18:01:06.400Z,6.50
2023-05-24T18:03:36.830Z,5.90
2023-05-24T18:06:07.124Z,6.20
2023-05-24T18:08:37.558Z,5.40
2023-05-24T18:11:08.645Z,6.00
2023-05-24T18:13:42.235Z,5.30
2023-05-24T18:16:13.231Z,6.20
2023-05-24T18:18:41.665Z,6.30
2023-05-24T18:21:10.156Z,7.10
2023-05-24T18:23:38.591Z,7.30
2023-05-24T18:26:08.344Z,7.50
2023-05-24T18:28:39.121Z,8.90
2023-05-24T18:31:15.105Z,8.40
2023-05-24T18:33:43.436Z,8.10
2023-05-24T18:36:12.942Z,9.00
2023-05-24T18:38:40.936Z,23.60
2023-05-24T18:41:12.565Z,20.80
2023-05-24T18:43:40.424Z,20.30
2023-05-24T18:46:09.270Z,19.30
2023-05-24T18:48:37.056Z,11.90
2023-05-24T18:51:05.963Z,10.30
2023-05-24T18:53:34.264Z,10.80
2023-05-24T18:56:02.362Z,9.40
2023-05-24T18:58:31.082Z,11.50
2023-05-24T19:00:59.503Z,11.90
2023-05-24T19:03:29.585Z,10.90
2023-05-24T19:05:58.047Z,12.00
2023-05-24T19:08:25.931Z,10.40
2023-05-24T19:10:54.122Z,9.30
2023-05-24T19:13:21.911Z,8.30
2023-05-24T19:15:49.461Z,8.60
2023-05-24T19:18:17.584Z,7.40
2023-05-24T19:20:45.563Z,7.10
2023-05-24T19:23:16.300Z,7.00
2023-05-24T19:25:44.437Z,7.60
2023-05-24T19:28:12.469Z,7.30
2023-05-24T19:30:40.166Z,5.90
2023-05-24T19:33:08.035Z,6.80
2023-05-24T19:35:36.778Z,6.50
2023-05-24T19:38:04.552Z,7.40
2023-05-24T19:40:32.583Z,7.00
2023-05-24T19:43:00.356Z,6.50
2023-05-24T19:45:28.171Z,6.70
2023-05-24T19:47:55.950Z,7.00
2023-05-24T19:50:23.666Z,7.90
2023-05-24T19:52:51.380Z,7.80
2023-05-24T19:55:19.069Z,6.80
2023-05-24T19:57:46.696Z,6.90
2023-05-24T20:00:14.892Z,7.90
2023-05-24T20:02:42.843Z,6.90
2023-05-24T20:05:11.539Z,6.20
2023-05-24T20:07:39.352Z,7.30
2023-05-24T20:10:08.931Z,6.90
2023-05-24T20:12:36.732Z,7.00
2023-05-24T20:15:08.166Z,7.80
2023-05-24T20:17:36.081Z,7.30
2023-05-24T20:20:04.692Z,7.80
2023-05-24T20:22:32.469Z,7.60
2023-05-24T20:25:00.342Z,7.90
2023-05-24T20:27:28.276Z,7.20
2023-05-24T20:29:56.695Z,8.10
2023-05-24T20:32:24.499Z,7.50
2023-05-24T20:34:52.382Z,7.70
2023-05-24T20:37:20.163Z,8.30
2023-05-24T20:39:48.126Z,9.90
2023-05-24T20:42:16.386Z,10.00
2023-05-24T20:44:44.450Z,10.40
2023-05-24T20:47:12.313Z,9.50
2023-05-24T20:49:40.186Z,9.00
2023-05-24T20:52:08.119Z,9.60
2023-05-24T20:54:36.442Z,9.30
2023-05-24T20:57:04.447Z,8.70
2023-05-24T20:59:32.247Z,8.90
2023-05-24T21:02:00.132Z,8.00
2023-05-24T21:04:27.919Z,7.80
2023-05-24T21:06:56.107Z,7.70
2023-05-24T21:09:23.999Z,8.30
2023-05-24T21:11:51.983Z,8.70
2023-05-24T21:14:19.828Z,10.00
2023-05-24T21:16:47.721Z,8.80
2023-05-24T21:19:15.567Z,9.70
2023-05-24T21:21:43.637Z,8.20
2023-05-24T21:24:11.365Z,8.50
2023-05-24T21:26:39.156Z,7.80
2023-05-24T21:29:06.945Z,8.80
2023-05-24T21:31:36.049Z,9.20
2023-05-24T21:34:04.008Z,9.30
2023-05-24T21:36:31.948Z,9.30
2023-05-24T21:38:59.775Z,10.40
2023-05-24T21:41:27.625Z,10.50
2023-05-24T21:43:55.428Z,9.80
2023-05-24T21:46:23.324Z,9.40
2023-05-24T21:48:51.124Z,9.60
2023-05-24T21:51:19.213Z,9.70
2023-05-24T21:53:47.046Z,9.60
2023-05-24T21:56:14.904Z,8.70
2023-05-24T21:58:42.738Z,8.80
2023-05-24T22:01:10.457Z,8.10
2023-05-24T22:03:38.538Z,8.90
2023-05-24T22:06:06.553Z,9.70
2023-05-24T22:08:34.450Z,9.20
2023-05-24T22:11:02.271Z,9.30
2023-05-24T22:13:30.061Z,9.00
2023-05-24T22:15:58.054Z,9.20
2023-05-24T22:18:28.591Z,8.50
2023-05-24T22:20:58.490Z,9.60
2023-05-24T22:23:26.721Z,9.90
2023-05-24T22:25:54.552Z,9.40
2023-05-24T22:28:22.153Z,9.80
2023-05-24T22:30:49.783Z,8.90
2023-05-24T22:33:17.475Z,9.20
2023-05-24T22:35:45.404Z,8.50
2023-05-24T22:38:13.432Z,8.40
2023-05-24T22:40:42.417Z,7.10
2023-05-24T22:43:10.160Z,8.50
2023-05-24T22:45:37.866Z,8.30
2023-05-24T22:48:05.710Z,8.30
2023-05-24T22:50:33.424Z,7.80
2023-05-24T22:53:01.104Z,8.20
2023-05-24T22:55:28.831Z,8.10
2023-05-24T22:57:56.463Z,8.60
2023-05-24T23:00:24.309Z,8.10
2023-05-24T23:02:52.122Z,9.30
2023-05-24T23:05:21.813Z,9.20
2023-05-24T23:07:49.630Z,9.00
2023-05-24T23:10:17.268Z,9.00
2023-05-24T23:12:44.978Z,9.10
2023-05-24T23:15:16.908Z,9.60
2023-05-24T23:17:44.703Z,10.80
2023-05-24T23:20:14.705Z,10.20
2023-05-24T23:22:42.631Z,9.80
2023-05-24T23:25:10.831Z,8.50
2023-05-24T23:27:38.435Z,10.00
2023-05-24T23:30:07.067Z,9.30
2023-05-24T23:32:35.223Z,9.30
2023-05-24T23:35:02.941Z,10.20
2023-05-24T23:37:30.826Z,9.10
2023-05-24T23:40:02.505Z,9.60
2023-05-24T23:42:30.200Z,8.70
2023-05-24T23:44:57.838Z,10.90
2023-05-24T23:47:25.571Z,9.60
2023-05-24T23:49:53.332Z,9.80
2023-05-24T23:52:21.069Z,10.20
2023-05-24T23:54:48.828Z,9.10
2023-05-24T23:57:17.673Z,8.80
2023-05-24T23:59:45.213Z,8.40
